Fort Oglethorpe, Georgia
Current Conditions -  °F | °C
As of 8:53 AM on Tuesday 27 Jan 2015 (Local Time) from KCHA Reporting Station
Broken Clouds Broken Clouds  
Wind Chill: 37°   Ceiling: 3300
Heat Index: 37°   Visibility: 10mi
Dew Point: 32°   Wind: 3mph
Humidity: 82%   Direction: 80°E
Pressure: 29.95"   Gusts: NA
Location:  34.95°N, 85.26°W
Report Text: KCHA 271353Z 08003KT 10SM BKN033 BKN040 03/00 A2995 RMK AO2 SLP146 T00280000
Loading
Personal Weather Stations






























Interactive Weather Map New forecast layout! Learn more

10-Day Weather Forecast

Advertisements
Track Severe Weather on mobile